createdAt,value
2019-05-23T00:01:14.196Z,11.20
2019-05-23T00:04:01.335Z,11.20
2019-05-23T00:06:34.363Z,11.30
2019-05-23T00:09:03.673Z,11.20
2019-05-23T00:11:40.606Z,11.20
2019-05-23T00:14:19.750Z,11.10
2019-05-23T00:16:48.780Z,11.00
2019-05-23T00:19:18.516Z,11.00
2019-05-23T00:21:46.985Z,11.00
2019-05-23T00:24:15.668Z,11.00
2019-05-23T00:26:44.726Z,10.90
2019-05-23T00:29:14.930Z,11.00
2019-05-23T00:31:45.302Z,11.00
2019-05-23T00:34:14.711Z,11.00
2019-05-23T00:36:45.739Z,11.00
2019-05-23T00:39:16.080Z,11.10
2019-05-23T00:41:45.943Z,11.10
2019-05-23T00:44:15.770Z,11.00
2019-05-23T00:46:44.796Z,10.90
2019-05-23T00:49:15.967Z,10.90
2019-05-23T00:51:45.383Z,10.90
2019-05-23T00:54:14.565Z,10.90
2019-05-23T00:56:43.068Z,11.00
2019-05-23T00:59:26.072Z,11.00
2019-05-23T01:01:42.982Z,11.00
2019-05-23T01:04:13.206Z,11.00
2019-05-23T01:06:42.569Z,10.90
2019-05-23T01:09:11.991Z,10.90
2019-05-23T01:11:40.453Z,10.80
2019-05-23T01:14:09.441Z,10.80
2019-05-23T01:16:38.949Z,10.70
2019-05-23T01:19:09.111Z,10.60
2019-05-23T01:21:48.267Z,10.60
2019-05-23T01:24:18.695Z,10.60
2019-05-23T01:26:47.994Z,10.60
2019-05-23T01:29:17.959Z,10.60
2019-05-23T01:31:48.139Z,10.60
2019-05-23T01:34:17.959Z,10.60
2019-05-23T01:36:48.328Z,10.70
2019-05-23T01:39:17.375Z,10.70
2019-05-23T01:41:46.667Z,10.70
2019-05-23T01:44:16.424Z,10.60
2019-05-23T01:46:45.684Z,10.50
2019-05-23T01:49:15.283Z,10.60
2019-05-23T01:51:44.553Z,10.60
2019-05-23T01:54:13.561Z,10.70
2019-05-23T01:56:42.558Z,10.70
2019-05-23T01:59:11.774Z,10.70
2019-05-23T02:01:41.656Z,10.70
2019-05-23T02:04:10.581Z,10.70
2019-05-23T02:06:39.523Z,10.60
2019-05-23T02:09:09.281Z,10.60
2019-05-23T02:11:37.818Z,10.60
2019-05-23T02:14:07.995Z,10.50
2019-05-23T02:16:37.918Z,10.50
2019-05-23T02:19:07.654Z,10.40
2019-05-23T02:21:36.988Z,10.40
2019-05-23T02:24:07.059Z,10.30
2019-05-23T02:26:37.132Z,10.30
2019-05-23T02:29:07.642Z,10.30
2019-05-23T02:31:37.547Z,10.30
2019-05-23T02:34:06.088Z,10.30
2019-05-23T02:36:34.832Z,10.20
2019-05-23T02:39:16.019Z,10.20
2019-05-23T02:41:58.613Z,10.20
2019-05-23T02:44:28.713Z,10.20
2019-05-23T02:46:59.192Z,10.20
2019-05-23T02:49:31.672Z,10.10
2019-05-23T02:52:03.576Z,10.20
2019-05-23T02:54:37.307Z,10.10
2019-05-23T02:57:04.767Z,10.10
2019-05-23T02:59:45.695Z,10.00
2019-05-23T03:02:41.805Z,10.00
2019-05-23T03:05:16.089Z,10.00
2019-05-23T03:07:45.263Z,10.00
2019-05-23T03:10:16.236Z,10.00
2019-05-23T03:12:46.381Z,9.90
2019-05-23T03:15:16.973Z,9.80
2019-05-23T03:17:48.981Z,9.70
2019-05-23T03:20:19.316Z,9.70
2019-05-23T03:22:55.528Z,9.70
2019-05-23T03:25:38.070Z,9.70
2019-05-23T03:28:08.170Z,9.70
2019-05-23T03:30:38.564Z,9.70
2019-05-23T03:33:12.699Z,9.80
2019-05-23T03:35:45.692Z,9.80
2019-05-23T03:38:14.482Z,9.80
2019-05-23T03:40:42.969Z,9.80
2019-05-23T03:43:12.596Z,9.70
2019-05-23T03:45:51.012Z,9.70
2019-05-23T03:48:20.512Z,9.70
2019-05-23T03:53:45.519Z,9.70
2019-05-23T03:56:15.123Z,9.70
2019-05-23T03:58:45.009Z,9.70
2019-05-23T04:01:15.280Z,9.70
2019-05-23T04:03:44.853Z,9.70
2019-05-23T04:06:14.125Z,9.70
2019-05-23T04:08:43.614Z,9.70
2019-05-23T04:11:12.409Z,9.80
2019-05-23T04:13:40.868Z,9.80
2019-05-23T04:16:11.183Z,9.90
2019-05-23T04:18:39.695Z,9.90
2019-05-23T04:21:08.142Z,10.10
2019-05-23T04:23:36.642Z,10.10
2019-05-23T04:26:05.343Z,10.20
2019-05-23T04:28:33.957Z,10.30
2019-05-23T04:31:02.908Z,10.40
2019-05-23T04:33:31.481Z,10.50
2019-05-23T04:36:00.159Z,10.50
2019-05-23T04:38:28.754Z,10.60
2019-05-23T04:40:57.419Z,10.70
2019-05-23T04:43:26.216Z,10.80
2019-05-23T04:45:54.786Z,10.90
2019-05-23T04:48:23.882Z,11.00
2019-05-23T04:50:52.684Z,11.10
2019-05-23T04:53:21.702Z,11.20
2019-05-23T04:55:51.200Z,11.30
2019-05-23T04:58:20.194Z,11.40
2019-05-23T05:00:48.752Z,11.50
2019-05-23T05:03:18.762Z,11.60
2019-05-23T05:05:47.680Z,11.70
2019-05-23T05:08:16.606Z,11.80
2019-05-23T05:10:47.327Z,11.90
2019-05-23T05:13:17.021Z,12.00
2019-05-23T05:15:45.749Z,12.00
2019-05-23T05:18:14.279Z,12.20
2019-05-23T05:20:42.804Z,12.30
2019-05-23T05:23:11.302Z,12.30
2019-05-23T05:25:39.750Z,12.50
2019-05-23T05:28:08.441Z,12.60
2019-05-23T05:30:37.482Z,12.60
2019-05-23T05:33:06.099Z,12.70
2019-05-23T05:35:35.605Z,12.80
2019-05-23T05:38:04.529Z,12.90
2019-05-23T05:40:33.305Z,13.00
2019-05-23T05:43:03.163Z,13.10
2019-05-23T05:45:31.865Z,13.40
2019-05-23T05:48:01.453Z,13.50
2019-05-23T05:50:30.911Z,13.60
2019-05-23T05:52:59.761Z,13.70
2019-05-23T05:55:28.291Z,13.70
2019-05-23T05:57:56.813Z,13.70
2019-05-23T06:00:27.261Z,13.70
2019-05-23T06:03:04.313Z,13.80
2019-05-23T06:05:41.216Z,13.90
2019-05-23T06:08:11.702Z,14.00
2019-05-23T06:10:40.221Z,14.20
2019-05-23T06:13:08.956Z,14.30
2019-05-23T06:15:37.764Z,14.50
2019-05-23T06:18:06.486Z,14.60
2019-05-23T06:20:35.746Z,14.60
2019-05-23T06:23:05.634Z,14.70
2019-05-23T06:25:34.243Z,14.90
2019-05-23T06:28:03.259Z,15.10
2019-05-23T06:30:33.349Z,15.40
2019-05-23T06:33:19.930Z,15.60
2019-05-23T06:35:33.281Z,15.70
2019-05-23T06:38:02.727Z,15.70
2019-05-23T06:40:32.472Z,15.90
2019-05-23T06:43:01.492Z,16.00
2019-05-23T06:45:30.210Z,16.10
2019-05-23T06:47:58.657Z,16.30
2019-05-23T06:50:28.139Z,16.30
2019-05-23T06:52:57.048Z,16.40
2019-05-23T06:55:25.662Z,16.40
2019-05-23T06:57:54.667Z,16.40
2019-05-23T07:00:27.442Z,16.40
2019-05-23T07:02:56.147Z,16.50
2019-05-23T07:05:27.858Z,16.60
2019-05-23T07:07:56.480Z,16.90
2019-05-23T07:10:25.404Z,16.90
2019-05-23T07:12:53.981Z,16.80
2019-05-23T07:15:23.462Z,16.80
2019-05-23T07:17:52.302Z,16.80
2019-05-23T07:20:21.412Z,16.90
2019-05-23T07:22:50.005Z,17.00
2019-05-23T07:25:18.535Z,17.00
2019-05-23T07:27:47.025Z,17.10
2019-05-23T07:30:21.050Z,17.30
2019-05-23T07:32:49.735Z,17.50
2019-05-23T07:35:19.111Z,17.90
2019-05-23T07:37:47.574Z,18.10
2019-05-23T07:40:16.371Z,18.10
2019-05-23T07:42:46.257Z,18.10
2019-05-23T07:45:20.048Z,18.10
2019-05-23T07:47:49.142Z,18.40
2019-05-23T07:50:17.702Z,18.50
2019-05-23T07:52:46.332Z,18.60
2019-05-23T07:55:20.222Z,18.80
2019-05-23T07:57:48.780Z,18.70
2019-05-23T08:00:21.878Z,18.80
2019-05-23T08:02:51.868Z,19.00
2019-05-23T08:05:23.140Z,19.10
2019-05-23T08:07:52.496Z,19.20
2019-05-23T08:10:33.074Z,19.10
2019-05-23T08:12:52.166Z,19.20
2019-05-23T08:15:20.696Z,19.10
2019-05-23T08:17:49.231Z,19.30
2019-05-23T08:20:18.249Z,19.50
2019-05-23T08:22:47.241Z,19.90
2019-05-23T08:25:16.211Z,19.80
2019-05-23T08:27:44.772Z,19.90
2019-05-23T08:30:15.560Z,19.90
2019-05-23T08:32:44.522Z,20.00
2019-05-23T08:35:17.700Z,20.10
2019-05-23T08:37:44.096Z,20.10
2019-05-23T08:40:14.764Z,20.10
2019-05-23T08:42:43.789Z,20.20
2019-05-23T08:45:12.799Z,20.30
2019-05-23T08:47:41.597Z,20.60
2019-05-23T08:50:11.898Z,20.70
2019-05-23T08:52:40.761Z,20.80
2019-05-23T08:55:18.091Z,20.90
2019-05-23T08:57:46.631Z,21.10
2019-05-23T09:00:15.587Z,21.00
2019-05-23T09:02:45.020Z,20.90
2019-05-23T09:05:13.942Z,21.00
2019-05-23T09:07:43.067Z,21.10
2019-05-23T09:10:12.567Z,21.10
2019-05-23T09:12:41.089Z,21.30
2019-05-23T09:15:10.538Z,21.30
2019-05-23T09:17:52.417Z,21.30
2019-05-23T09:20:09.849Z,21.80
2019-05-23T09:22:39.054Z,21.80
2019-05-23T09:25:08.473Z,21.70
2019-05-23T09:27:37.376Z,22.00
2019-05-23T09:30:08.296Z,21.50
2019-05-23T09:32:36.781Z,21.90
2019-05-23T09:35:19.616Z,22.00
2019-05-23T09:37:36.481Z,22.20
2019-05-23T09:40:06.587Z,22.10
2019-05-23T09:42:35.288Z,21.90
2019-05-23T09:45:04.770Z,21.90
2019-05-23T09:47:33.961Z,22.00
2019-05-23T09:50:03.124Z,22.10
2019-05-23T09:52:31.815Z,22.30
2019-05-23T09:55:00.393Z,22.00
2019-05-23T09:57:29.519Z,22.30
2019-05-23T09:59:58.199Z,22.60
2019-05-23T10:02:28.238Z,22.50
2019-05-23T10:04:57.533Z,22.40
2019-05-23T10:07:26.522Z,22.40
2019-05-23T10:09:55.028Z,22.70
2019-05-23T10:12:23.608Z,22.80
2019-05-23T10:14:52.063Z,23.10
2019-05-23T10:17:20.623Z,22.50
2019-05-23T10:19:49.065Z,22.80
2019-05-23T10:22:17.698Z,23.10
2019-05-23T10:24:46.194Z,22.60
2019-05-23T10:27:14.926Z,22.70
2019-05-23T10:29:43.600Z,22.80
2019-05-23T10:32:13.694Z,23.10
2019-05-23T10:34:42.216Z,23.20
2019-05-23T10:37:12.326Z,23.40
2019-05-23T10:39:44.003Z,23.60
2019-05-23T10:42:12.624Z,23.70
2019-05-23T10:44:44.960Z,24.00
2019-05-23T10:47:14.238Z,24.00
2019-05-23T10:49:42.780Z,23.80
2019-05-23T10:52:11.371Z,23.50
2019-05-23T10:54:39.939Z,24.10
2019-05-23T10:57:08.573Z,24.40
2019-05-23T10:59:37.032Z,24.30
2019-05-23T11:02:07.162Z,24.80
2019-05-23T11:04:35.691Z,24.90
2019-05-23T11:07:05.555Z,25.10
2019-05-23T11:09:37.852Z,24.40
2019-05-23T11:12:06.124Z,23.80
2019-05-23T11:14:34.738Z,23.30
2019-05-23T11:17:03.720Z,23.50
2019-05-23T11:19:32.174Z,23.90
2019-05-23T11:22:00.646Z,24.10
2019-05-23T11:24:29.464Z,24.30
2019-05-23T11:26:58.407Z,23.70
2019-05-23T11:29:27.620Z,23.60
2019-05-23T11:31:56.232Z,23.60
2019-05-23T11:34:24.765Z,23.60
2019-05-23T11:36:53.293Z,23.70
2019-05-23T11:39:22.568Z,23.90
2019-05-23T11:41:51.169Z,23.60
2019-05-23T11:44:19.684Z,23.50
2019-05-23T11:46:48.186Z,23.30
2019-05-23T11:49:16.768Z,23.40
2019-05-23T11:51:45.316Z,23.60
2019-05-23T11:54:14.445Z,23.40
2019-05-23T11:56:43.242Z,22.90
2019-05-23T11:59:12.116Z,23.00
2019-05-23T12:01:45.817Z,22.90
2019-05-23T12:04:15.996Z,22.90
2019-05-23T12:06:55.306Z,23.30
2019-05-23T12:09:17.144Z,23.30
2019-05-23T12:11:46.024Z,23.00
2019-05-23T12:14:14.620Z,22.50
2019-05-23T12:16:43.470Z,23.10
2019-05-23T12:19:12.439Z,23.20
2019-05-23T12:21:40.998Z,23.50
2019-05-23T12:24:09.706Z,23.80
2019-05-23T12:26:38.318Z,24.40
2019-05-23T12:29:07.274Z,24.00
2019-05-23T12:31:35.775Z,24.00
2019-05-23T12:34:04.360Z,24.10
2019-05-23T12:36:32.884Z,23.90
2019-05-23T12:39:01.410Z,23.50
2019-05-23T12:41:29.976Z,23.10
2019-05-23T12:43:58.493Z,23.20
2019-05-23T12:46:27.057Z,23.30
2019-05-23T12:49:00.602Z,23.40
2019-05-23T12:51:36.890Z,23.80
2019-05-23T12:54:05.634Z,23.20
2019-05-23T12:56:34.509Z,22.90
2019-05-23T12:59:03.674Z,23.30
2019-05-23T13:01:32.720Z,23.50
2019-05-23T13:04:01.744Z,23.10
2019-05-23T13:06:31.942Z,23.30
2019-05-23T13:09:00.473Z,22.70
2019-05-23T13:11:29.500Z,23.20
2019-05-23T13:13:58.120Z,23.60
2019-05-23T13:16:27.526Z,23.90
2019-05-23T13:18:55.986Z,23.70
2019-05-23T13:21:24.649Z,23.50
2019-05-23T13:23:53.344Z,23.00
2019-05-23T13:26:21.943Z,22.90
2019-05-23T13:28:50.508Z,23.10
2019-05-23T13:31:19.132Z,23.40
2019-05-23T13:33:47.832Z,23.40
2019-05-23T13:36:16.773Z,23.70
2019-05-23T13:38:45.866Z,23.20
2019-05-23T13:41:14.626Z,23.20
2019-05-23T13:43:43.363Z,23.20
2019-05-23T13:46:12.026Z,23.00
2019-05-23T13:48:40.659Z,22.70
2019-05-23T13:51:09.594Z,23.20
2019-05-23T13:53:38.318Z,23.10
2019-05-23T13:56:07.439Z,23.20
2019-05-23T13:58:36.505Z,23.30
2019-05-23T14:01:09.186Z,23.10
2019-05-23T14:03:36.189Z,23.50
2019-05-23T14:06:05.104Z,23.50
2019-05-23T14:08:34.004Z,23.40
2019-05-23T14:11:21.918Z,23.30
2019-05-23T14:13:59.698Z,23.60
2019-05-23T14:16:20.823Z,23.70
2019-05-23T14:18:49.544Z,23.90
2019-05-23T14:21:18.012Z,23.20
2019-05-23T14:23:46.541Z,22.80
2019-05-23T14:26:16.471Z,22.90
2019-05-23T14:28:45.407Z,23.00
2019-05-23T14:31:15.669Z,22.90
2019-05-23T14:33:46.148Z,22.80
2019-05-23T14:36:22.220Z,22.80
2019-05-23T14:38:52.407Z,22.60
2019-05-23T14:41:21.293Z,23.00
2019-05-23T14:43:51.411Z,23.20
2019-05-23T14:46:28.089Z,23.40
2019-05-23T14:49:01.240Z,23.50
2019-05-23T14:51:43.593Z,23.30
2019-05-23T14:54:20.135Z,23.20
2019-05-23T14:56:48.664Z,22.70
2019-05-23T14:59:18.381Z,22.70
2019-05-23T15:01:47.445Z,22.90
2019-05-23T15:04:16.075Z,23.00
2019-05-23T15:06:44.869Z,22.90
2019-05-23T15:09:13.396Z,23.20
2019-05-23T15:11:42.135Z,23.00
2019-05-23T15:14:10.731Z,22.90
2019-05-23T15:16:39.291Z,23.10
2019-05-23T15:19:07.824Z,23.10
2019-05-23T15:21:36.378Z,22.70
2019-05-23T15:24:05.317Z,22.90
2019-05-23T15:26:34.305Z,23.00
2019-05-23T15:29:02.861Z,23.10
2019-05-23T15:31:31.425Z,23.10
2019-05-23T15:34:00.048Z,22.80
2019-05-23T15:36:28.595Z,22.70
2019-05-23T15:39:08.932Z,23.10
2019-05-23T15:41:28.594Z,23.10
2019-05-23T15:43:57.111Z,23.10
2019-05-23T15:46:25.754Z,23.20
2019-05-23T15:48:54.505Z,23.40
2019-05-23T15:51:24.744Z,23.70
2019-05-23T15:53:55.053Z,23.50
2019-05-23T15:56:28.244Z,23.30
2019-05-23T15:58:57.393Z,23.10
2019-05-23T16:01:33.739Z,22.60
2019-05-23T16:04:12.834Z,22.60
2019-05-23T16:06:41.631Z,22.80
2019-05-23T16:09:27.551Z,22.90
2019-05-23T16:11:42.977Z,22.90
2019-05-23T16:14:11.837Z,22.90
2019-05-23T16:16:40.973Z,23.20
2019-05-23T16:19:09.464Z,23.50
2019-05-23T16:21:39.216Z,23.70
2019-05-23T16:24:09.494Z,24.80
2019-05-23T16:26:38.602Z,24.80
2019-05-23T16:29:08.198Z,24.30
2019-05-23T16:31:36.838Z,23.90
2019-05-23T16:34:05.431Z,23.60
2019-05-23T16:36:33.976Z,23.70
2019-05-23T16:39:02.435Z,24.40
2019-05-23T16:41:31.081Z,24.20
2019-05-23T16:43:59.571Z,23.70
2019-05-23T16:46:28.445Z,23.50
2019-05-23T16:48:56.997Z,23.30
2019-05-23T16:51:25.454Z,23.30
2019-05-23T16:53:53.977Z,23.00
2019-05-23T16:56:35.884Z,22.70
2019-05-23T16:59:24.423Z,23.00
2019-05-23T17:02:06.354Z,22.90
2019-05-23T17:04:42.090Z,23.00
2019-05-23T17:07:15.306Z,22.80
2019-05-23T17:10:09.153Z,22.80
2019-05-23T17:12:37.970Z,22.70
2019-05-23T17:15:21.446Z,22.60
2019-05-23T17:18:02.241Z,22.80
2019-05-23T17:20:23.578Z,23.40
2019-05-23T17:22:53.671Z,23.40
2019-05-23T17:25:26.925Z,23.10
2019-05-23T17:28:09.137Z,23.00
2019-05-23T17:30:54.782Z,23.10
2019-05-23T17:33:23.870Z,22.90
2019-05-23T17:35:52.320Z,22.70
2019-05-23T17:38:21.052Z,22.80
2019-05-23T17:40:49.520Z,23.50
2019-05-23T17:43:18.132Z,23.30
2019-05-23T17:45:46.944Z,23.20
2019-05-23T17:48:15.418Z,23.30
2019-05-23T17:50:43.974Z,23.50
2019-05-23T17:53:12.421Z,23.70
2019-05-23T17:55:41.287Z,23.50
2019-05-23T17:58:09.760Z,23.50
2019-05-23T18:00:39.858Z,23.50
2019-05-23T18:03:08.843Z,23.20
2019-05-23T18:05:37.608Z,23.10
2019-05-23T18:08:07.448Z,22.80
2019-05-23T18:10:44.451Z,22.60
2019-05-23T18:13:07.307Z,22.40
2019-05-23T18:15:36.485Z,22.40
2019-05-23T18:18:05.893Z,22.40
2019-05-23T18:20:35.558Z,22.30
2019-05-23T18:23:04.948Z,22.20
2019-05-23T18:25:33.783Z,22.10
2019-05-23T18:28:02.748Z,22.20
2019-05-23T18:30:36.022Z,22.10
2019-05-23T18:33:06.165Z,22.10
2019-05-23T18:35:35.525Z,22.00
2019-05-23T18:38:04.710Z,21.90
2019-05-23T18:40:33.508Z,21.80
2019-05-23T18:43:03.163Z,21.70
2019-05-23T18:45:32.535Z,21.60
2019-05-23T18:48:01.238Z,21.50
2019-05-23T18:50:31.224Z,21.40
2019-05-23T18:52:59.815Z,21.30
2019-05-23T18:55:29.348Z,21.30
2019-05-23T18:57:58.411Z,21.20
2019-05-23T19:00:50.966Z,21.10
2019-05-23T19:03:19.622Z,21.00
2019-05-23T19:05:48.114Z,20.90
2019-05-23T19:08:17.173Z,20.90
2019-05-23T19:10:46.834Z,20.80
2019-05-23T19:13:15.449Z,20.80
2019-05-23T19:15:44.403Z,20.70
2019-05-23T19:18:13.144Z,20.70
2019-05-23T19:20:42.374Z,20.60
2019-05-23T19:23:11.236Z,20.50
2019-05-23T19:25:40.018Z,20.40
2019-05-23T19:28:09.075Z,20.40
2019-05-23T19:30:37.653Z,20.30
2019-05-23T19:33:08.085Z,20.20
2019-05-23T19:35:37.275Z,20.20
2019-05-23T19:38:06.550Z,20.10
2019-05-23T19:40:36.037Z,20.10
2019-05-23T19:43:06.444Z,20.00
2019-05-23T19:45:35.731Z,19.90
2019-05-23T19:48:04.553Z,19.80
2019-05-23T19:50:34.092Z,19.80
2019-05-23T19:53:02.634Z,19.70
2019-05-23T19:55:31.967Z,19.60
2019-05-23T19:58:00.740Z,19.60
2019-05-23T20:00:31.483Z,19.50
2019-05-23T20:03:03.679Z,19.40
2019-05-23T20:05:34.823Z,19.30
2019-05-23T20:08:03.665Z,19.30
2019-05-23T20:10:33.255Z,19.20
2019-05-23T20:13:01.914Z,19.10
2019-05-23T20:15:31.337Z,19.00
2019-05-23T20:17:59.940Z,19.00
2019-05-23T20:20:29.834Z,19.00
2019-05-23T20:22:58.450Z,18.90
2019-05-23T20:25:28.070Z,18.90
2019-05-23T20:27:56.607Z,18.70
2019-05-23T20:30:38.140Z,18.70
2019-05-23T20:33:06.698Z,18.60
2019-05-23T20:35:35.158Z,18.50
2019-05-23T20:38:03.855Z,18.50
2019-05-23T20:40:32.980Z,18.50
2019-05-23T20:43:02.617Z,18.40
2019-05-23T20:45:31.292Z,18.40
2019-05-23T20:47:59.922Z,18.30
2019-05-23T20:50:28.408Z,18.20
2019-05-23T20:52:57.608Z,18.20
2019-05-23T20:55:26.371Z,18.30
2019-05-23T20:57:54.853Z,18.10
2019-05-23T21:00:25.093Z,18.10
2019-05-23T21:02:53.645Z,18.10
2019-05-23T21:05:22.233Z,18.10
2019-05-23T21:07:50.812Z,18.10
2019-05-23T21:10:43.575Z,18.00
2019-05-23T21:13:12.281Z,18.00
2019-05-23T21:15:41.149Z,18.00
2019-05-23T21:18:09.947Z,18.00
2019-05-23T21:20:38.481Z,18.00
2019-05-23T21:23:07.105Z,18.00
2019-05-23T21:25:37.357Z,18.00
2019-05-23T21:28:05.989Z,17.80
2019-05-23T21:30:34.762Z,17.90
2019-05-23T21:33:03.486Z,17.80
2019-05-23T21:35:32.382Z,17.80
2019-05-23T21:38:00.940Z,17.70
2019-05-23T21:40:38.195Z,17.60
2019-05-23T21:43:06.899Z,17.60
2019-05-23T21:45:35.372Z,17.60
2019-05-23T21:48:06.545Z,17.60
2019-05-23T21:50:54.103Z,17.60
2019-05-23T21:53:22.587Z,17.70
2019-05-23T21:55:51.124Z,17.60
2019-05-23T21:58:19.686Z,17.60
2019-05-23T22:01:08.138Z,17.50
2019-05-23T22:03:54.625Z,17.60
2019-05-23T22:06:29.077Z,17.60
2019-05-23T22:08:57.843Z,17.60
2019-05-23T22:11:26.737Z,17.60
2019-05-23T22:13:55.251Z,17.60
2019-05-23T22:16:24.374Z,17.60
2019-05-23T22:18:52.823Z,17.60
2019-05-23T22:21:21.301Z,17.70
2019-05-23T22:23:50.011Z,17.60
2019-05-23T22:26:18.500Z,17.60
2019-05-23T22:28:46.954Z,17.60
2019-05-23T22:31:15.887Z,17.50
2019-05-23T22:33:48.922Z,17.50
2019-05-23T22:36:18.590Z,17.40
2019-05-23T22:38:47.154Z,17.30
2019-05-23T22:41:15.615Z,17.30
2019-05-23T22:43:44.153Z,17.20
2019-05-23T22:46:12.909Z,17.10
2019-05-23T22:48:41.370Z,17.10
2019-05-23T22:51:09.830Z,17.00
2019-05-23T22:53:38.337Z,17.00
2019-05-23T22:56:07.359Z,17.00
2019-05-23T22:58:35.887Z,17.00
2019-05-23T23:01:04.692Z,16.90
2019-05-23T23:03:33.151Z,16.90
2019-05-23T23:06:01.602Z,16.90
2019-05-23T23:08:31.122Z,16.90
2019-05-23T23:10:59.660Z,16.80
2019-05-23T23:13:38.149Z,16.70
2019-05-23T23:15:59.089Z,16.70
2019-05-23T23:18:27.541Z,16.50
2019-05-23T23:20:56.087Z,16.50
2019-05-23T23:23:24.715Z,16.50
2019-05-23T23:25:53.193Z,16.40
2019-05-23T23:28:21.660Z,16.40
2019-05-23T23:30:51.208Z,16.30
2019-05-23T23:33:19.808Z,16.20
2019-05-23T23:35:48.354Z,16.10
2019-05-23T23:38:16.862Z,16.10
2019-05-23T23:40:45.379Z,16.00
2019-05-23T23:43:13.891Z,15.90
2019-05-23T23:46:00.536Z,15.80
2019-05-23T23:48:46.933Z,15.90
2019-05-23T23:51:32.703Z,15.80
2019-05-23T23:54:19.261Z,15.60
2019-05-23T23:57:04.880Z,15.50
2019-05-23T23:59:32.722Z,15.40
